Time;durP1;ratioP1;P1;durP2;ratioP2;P2;SDS_P1;SDS_P2;PMS_P1;PMS_P2;Temp;Humidity;BMP_temperature;BMP_pressure;BME280_temperature;BME280_humidity;BME280_pressure;Samples;Min_cycle;Max_cycle;Signal;HPM_P1;HPM_P2
2023/06/06 00:00:18;;;;;;;15.18;5.82;;;;;;;13.31;99.34;101946.34;4993397;28;20038;-72
2023/06/06 00:02:45;;;;;;;10.57;4.38;;;;;;;13.26;100.00;101950.59;5010999;28;20033;-72
2023/06/06 00:05:15;;;;;;;15.43;5.55;;;;;;;13.20;100.00;101945.97;4993626;28;20120;-72
2023/06/06 00:07:43;;;;;;;11.70;5.13;;;;;;;13.14;100.00;101953.72;5011007;28;20045;-72
2023/06/06 00:10:09;;;;;;;15.65;6.13;;;;;;;13.07;100.00;101950.16;4993244;28;20101;-72
2023/06/06 00:12:35;;;;;;;14.52;6.32;;;;;;;13.09;100.00;101953.44;5011055;28;20029;-72
2023/06/06 00:15:00;;;;;;;16.15;6.25;;;;;;;13.04;100.00;101955.84;4993298;28;20034;-72
2023/06/06 00:17:26;;;;;;;14.05;6.28;;;;;;;12.92;100.00;101952.81;5010785;28;20044;-72
2023/06/06 00:19:52;;;;;;;15.02;6.40;;;;;;;12.94;100.00;101958.84;5010073;28;20064;-72
2023/06/06 00:22:22;;;;;;;15.00;6.07;;;;;;;12.93;100.00;101948.28;5010785;28;20049;-72
2023/06/06 00:24:48;;;;;;;14.48;5.65;;;;;;;12.88;100.00;101950.69;5010686;28;20049;-72
2023/06/06 00:27:14;;;;;;;14.63;5.55;;;;;;;12.76;100.00;101941.44;5010673;28;20029;-72
2023/06/06 00:29:39;;;;;;;14.65;6.22;;;;;;;12.79;100.00;101952.66;5010592;28;20034;-72
2023/06/06 00:32:05;;;;;;;13.98;5.78;;;;;;;12.76;100.00;101944.97;5010774;28;20492;-72
2023/06/06 00:34:30;;;;;;;14.02;5.65;;;;;;;12.76;100.00;101949.47;5010698;28;20034;-72
2023/06/06 00:36:56;;;;;;;13.10;5.38;;;;;;;12.72;100.00;101947.19;5010474;28;20525;-72
2023/06/06 00:39:21;;;;;;;16.63;6.68;;;;;;;12.70;100.00;101956.41;4992792;28;20584;-72
2023/06/06 00:41:48;;;;;;;16.52;6.05;;;;;;;12.67;100.00;101949.56;5010530;28;20030;-72
2023/06/06 00:44:13;;;;;;;15.68;6.47;;;;;;;12.62;100.00;101943.94;5010396;28;20038;-72
2023/06/06 00:46:39;;;;;;;15.63;6.03;;;;;;;12.59;100.00;101952.34;5010342;28;20488;-73
2023/06/06 00:49:05;;;;;;;10.75;5.15;;;;;;;12.55;100.00;101958.22;5010180;28;20056;-72
2023/06/06 00:51:31;;;;;;;15.45;5.47;;;;;;;12.46;100.00;101952.13;5010327;28;20061;-72
2023/06/06 00:53:59;;;;;;;11.85;4.80;;;;;;;12.48;100.00;101963.50;5010193;28;20997;-72
2023/06/06 00:56:28;;;;;;;14.45;6.53;;;;;;;12.42;100.00;101956.22;4992670;28;20108;-72
2023/06/06 00:58:54;;;;;;;15.98;7.07;;;;;;;12.39;100.00;101957.41;4992974;28;20053;-73
2023/06/06 01:01:19;;;;;;;14.75;6.30;;;;;;;12.32;100.00;101944.94;5010090;28;20065;-72
2023/06/06 01:03:46;;;;;;;15.55;6.82;;;;;;;12.29;100.00;101962.16;5010046;28;20099;-73
2023/06/06 01:06:13;;;;;;;13.45;5.43;;;;;;;12.26;100.00;101949.13;5010093;28;20370;-72
2023/06/06 01:08:38;;;;;;;13.73;6.15;;;;;;;12.24;100.00;101960.03;5009871;28;20397;-72
2023/06/06 01:11:12;;;;;;;13.15;5.38;;;;;;;12.18;100.00;101951.88;5009995;28;20029;-72
2023/06/06 01:13:53;;;;;;;12.48;6.20;;;;;;;12.17;100.00;101960.91;5009853;28;20734;-72
2023/06/06 01:16:20;;;;;;;17.90;7.18;;;;;;;12.07;100.00;101956.63;4992183;28;20090;-72
2023/06/06 01:18:47;;;;;;;13.75;5.28;;;;;;;12.04;100.00;101957.00;5009909;28;20038;-72
2023/06/06 01:21:14;;;;;;;13.95;6.18;;;;;;;11.96;100.00;101951.72;5009775;28;20926;-72
2023/06/06 01:23:43;;;;;;;13.88;6.60;;;;;;;11.90;100.00;101949.78;5009615;28;20140;-72
2023/06/06 01:26:08;;;;;;;13.55;5.50;;;;;;;11.90;100.00;101955.13;5009569;28;20045;-72
2023/06/06 01:28:34;;;;;;;15.07;7.15;;;;;;;11.83;100.00;101951.44;4992049;28;20378;-73
2023/06/06 01:30:59;;;;;;;13.13;5.35;;;;;;;11.85;100.00;101957.47;4991789;28;20026;-72
2023/06/06 01:33:46;;;;;;;14.35;6.03;;;;;;;11.83;100.00;101959.47;5009834;28;20672;-72
2023/06/06 01:36:35;;;;;;;14.05;6.97;;;;;;;11.79;100.00;101958.19;4991841;28;20124;-72
2023/06/06 01:39:08;;;;;;;12.43;5.03;;;;;;;11.73;100.00;101954.34;5009575;28;20045;-72
2023/06/06 01:41:36;;;;;;;13.07;5.40;;;;;;;11.72;100.00;101952.69;5009579;28;20034;-72
2023/06/06 01:44:03;;;;;;;12.18;6.00;;;;;;;11.66;100.00;101948.06;5009593;28;20034;-72
2023/06/06 01:46:30;;;;;;;13.50;5.63;;;;;;;11.65;100.00;101949.06;5009461;28;20179;-72
2023/06/06 01:48:56;;;;;;;16.30;5.90;;;;;;;11.58;100.00;101953.44;5009597;28;20026;-72
2023/06/06 01:51:24;;;;;;;14.82;6.22;;;;;;;11.59;100.00;101934.56;4991839;28;20032;-72
2023/06/06 01:53:49;;;;;;;15.57;5.82;;;;;;;11.60;100.00;101949.56;5009416;28;20085;-72
2023/06/06 01:56:15;;;;;;;14.93;6.20;;;;;;;11.59;100.00;101947.09;5009283;28;20118;-72
2023/06/06 01:58:41;;;;;;;16.52;5.50;;;;;;;11.52;100.00;101946.97;5009353;28;20038;-72
2023/06/06 02:01:07;;;;;;;15.85;5.88;;;;;;;11.50;100.00;101956.16;5009396;28;20219;-72
2023/06/06 02:03:32;;;;;;;16.23;5.70;;;;;;;11.47;100.00;101956.50;5009421;28;20120;-72
2023/06/06 02:05:58;;;;;;;11.52;5.13;;;;;;;11.43;100.00;101952.53;5009426;28;20033;-73
2023/06/06 02:08:23;;;;;;;15.23;5.78;;;;;;;11.43;100.00;101952.53;5009400;28;20034;-72
2023/06/06 02:10:49;;;;;;;15.32;6.35;;;;;;;11.38;100.00;101958.41;4991512;28;20065;-72
2023/06/06 02:13:15;;;;;;;16.20;6.43;;;;;;;11.31;100.00;101955.59;4991847;28;20524;-72
2023/06/06 02:15:41;;;;;;;16.60;6.57;;;;;;;11.25;100.00;101942.13;5009227;28;20034;-72
2023/06/06 02:18:06;;;;;;;15.13;6.18;;;;;;;11.26;100.00;101949.09;4991592;28;20385;-72
2023/06/06 02:20:32;;;;;;;13.45;5.82;;;;;;;11.17;100.00;101943.81;5009049;28;20038;-72
2023/06/06 02:22:57;;;;;;;15.73;6.45;;;;;;;11.18;100.00;101950.78;5009354;28;20034;-72
2023/06/06 02:25:23;;;;;;;15.45;6.95;;;;;;;11.15;100.00;101948.47;4991478;28;20085;-72
2023/06/06 02:27:50;;;;;;;13.05;5.60;;;;;;;11.14;100.00;101951.34;4991734;28;20030;-72
2023/06/06 02:30:15;;;;;;;14.52;5.28;;;;;;;11.12;100.00;101956.00;5009068;28;20026;-72
2023/06/06 02:32:41;;;;;;;18.33;5.88;;;;;;;11.09;100.00;101956.38;5009051;28;20088;-72
2023/06/06 02:35:07;;;;;;;11.63;5.25;;;;;;;11.09;100.00;101951.03;5009162;28;20080;-72
2023/06/06 02:37:33;;;;;;;14.35;6.25;;;;;;;11.01;100.00;101943.06;5008907;28;20037;-73
2023/06/06 02:40:06;;;;;;;14.32;5.57;;;;;;;11.03;100.00;101957.88;5008985;28;20030;-72
2023/06/06 02:42:31;;;;;;;12.68;5.40;;;;;;;10.96;100.00;101938.22;5009492;28;20076;-72
2023/06/06 02:44:56;;;;;;;16.45;6.57;;;;;;;10.98;100.00;101941.56;5012690;28;20477;-72
2023/06/06 02:47:22;;;;;;;17.42;5.90;;;;;;;10.96;100.00;101940.88;4994968;28;20033;-73
2023/06/06 02:49:47;;;;;;;13.25;6.18;;;;;;;10.92;100.00;101944.91;5012433;28;20487;-72
2023/06/06 02:52:13;;;;;;;16.05;5.20;;;;;;;10.90;100.00;101954.94;5012416;28;20034;-72
2023/06/06 02:54:40;;;;;;;16.10;6.82;;;;;;;10.87;100.00;101950.78;5012493;28;20030;-72
2023/06/06 02:57:05;;;;;;;12.82;5.28;;;;;;;10.88;100.00;101951.59;5012533;28;20034;-72
2023/06/06 02:59:31;;;;;;;16.42;7.55;;;;;;;10.85;100.00;101949.28;5012211;28;20037;-72
2023/06/06 03:01:56;;;;;;;14.52;5.93;;;;;;;10.85;100.00;101949.28;5012446;28;20030;-72
2023/06/06 03:04:22;;;;;;;13.55;5.78;;;;;;;10.81;100.00;101959.44;5012368;28;20037;-72
2023/06/06 03:06:48;;;;;;;14.55;6.65;;;;;;;10.78;100.00;101957.13;4994424;28;20037;-71
2023/06/06 03:09:13;;;;;;;16.77;7.05;;;;;;;10.73;100.00;101954.13;5012368;28;20096;-72
2023/06/06 03:11:39;;;;;;;14.93;7.03;;;;;;;10.76;100.00;101959.13;5012034;28;20433;-72
2023/06/06 03:14:04;;;;;;;15.95;6.93;;;;;;;10.75;100.00;101960.13;5012440;28;20068;-72
2023/06/06 03:16:30;;;;;;;12.63;5.72;;;;;;;10.72;100.00;101961.31;5012087;28;20026;-72
2023/06/06 03:18:56;;;;;;;13.88;5.53;;;;;;;10.68;100.00;101951.97;5011828;28;20112;-72
2023/06/06 03:21:21;;;;;;;15.13;5.68;;;;;;;10.72;100.00;101963.16;5011730;28;20025;-72
2023/06/06 03:23:47;;;;;;;13.98;6.30;;;;;;;10.77;100.00;101960.81;4993855;28;20054;-71
2023/06/06 03:26:13;;;;;;;15.57;6.57;;;;;;;10.75;100.00;101963.63;5011938;28;20025;-72
2023/06/06 03:28:39;;;;;;;15.98;5.80;;;;;;;10.74;100.00;101959.31;5011879;28;20069;-72
2023/06/06 03:31:06;;;;;;;14.35;6.53;;;;;;;10.70;100.00;101960.63;5011803;28;20022;-72
2023/06/06 03:33:32;;;;;;;13.07;5.63;;;;;;;10.67;100.00;101965.50;5011673;28;20099;-72
2023/06/06 03:35:58;;;;;;;14.75;5.78;;;;;;;10.62;100.00;101960.66;5011746;28;20037;-72
2023/06/06 03:38:24;;;;;;;16.02;6.22;;;;;;;10.62;100.00;101965.16;5011649;28;20041;-72
2023/06/06 03:40:49;;;;;;;13.00;5.95;;;;;;;10.62;100.00;101960.66;5011636;28;20022;-72
2023/06/06 03:43:15;;;;;;;19.23;6.63;;;;;;;10.60;100.00;101961.84;4994024;28;20112;-72
2023/06/06 03:45:40;;;;;;;14.95;6.43;;;;;;;10.48;100.00;101948.84;5011465;28;20030;-72
2023/06/06 03:48:06;;;;;;;13.73;5.47;;;;;;;10.53;100.00;101962.50;5011504;28;20521;-72
2023/06/06 03:50:32;;;;;;;12.32;5.35;;;;;;;10.52;100.00;101952.00;5011379;28;20025;-72
2023/06/06 03:52:58;;;;;;;14.68;6.05;;;;;;;10.51;100.00;101953.03;5011305;28;20037;-72
2023/06/06 03:55:23;;;;;;;14.35;6.50;;;;;;;10.56;100.00;101968.50;5010160;28;20369;-72
2023/06/06 03:57:50;;;;;;;12.52;5.65;;;;;;;10.57;100.00;101962.16;5011345;28;20025;-72
2023/06/06 04:00:15;;;;;;;16.58;7.75;;;;;;;10.56;100.00;101964.00;5011228;28;20091;-72
2023/06/06 04:02:42;;;;;;;13.70;6.40;;;;;;;10.59;100.00;101962.84;5011322;28;20541;-72
2023/06/06 04:05:08;;;;;;;18.10;6.63;;;;;;;10.59;100.00;101961.00;5011168;28;20029;-72
2023/06/06 04:07:34;;;;;;;15.48;6.93;;;;;;;10.65;100.00;101965.66;5011111;28;20492;-72
2023/06/06 04:10:00;;;;;;;14.98;5.55;;;;;;;10.70;100.00;101962.47;5010902;28;20040;-72
2023/06/06 04:12:25;;;;;;;16.10;6.35;;;;;;;10.72;100.00;101957.81;5011008;28;20029;-72
2023/06/06 04:14:51;;;;;;;15.90;6.25;;;;;;;10.74;100.00;101969.13;5010831;28;20064;-72
2023/06/06 04:17:21;;;;;;;14.05;5.45;;;;;;;10.72;100.00;101955.16;5010747;28;20069;-72
2023/06/06 04:19:47;;;;;;;15.18;6.05;;;;;;;10.70;100.00;101949.13;5010803;28;20029;-72
2023/06/06 04:22:14;;;;;;;17.42;5.70;;;;;;;10.74;100.00;101971.78;5010880;28;20056;-71
2023/06/06 04:24:39;;;;;;;11.73;5.88;;;;;;;10.70;100.00;101952.63;5010697;28;20165;-72
2023/06/06 04:27:05;;;;;;;20.35;8.68;;;;;;;10.80;100.00;101970.31;5010722;28;20485;-71
2023/06/06 04:29:34;;;;;;;16.52;6.22;;;;;;;10.74;100.00;101956.63;5010642;28;20030;-71
2023/06/06 04:32:03;;;;;;;12.88;6.68;;;;;;;10.88;100.00;101967.63;5010758;28;20065;-71
2023/06/06 04:34:30;;;;;;;18.40;6.95;;;;;;;10.90;100.00;101963.78;5010590;28;20382;-71
2023/06/06 04:37:04;;;;;;;14.93;5.75;;;;;;;10.95;100.00;101965.91;5010537;28;20032;-72
2023/06/06 04:39:33;;;;;;;16.73;7.13;;;;;;;10.94;100.00;101953.56;5010470;28;20036;-72
2023/06/06 04:42:00;;;;;;;14.20;6.32;;;;;;;10.98;100.00;101960.25;5010517;28;20025;-72
2023/06/06 04:44:26;;;;;;;21.40;6.68;;;;;;;11.13;100.00;101963.00;5010255;28;20068;-71
2023/06/06 04:46:52;;;;;;;15.95;6.32;;;;;;;11.17;100.00;101967.00;5010347;28;20033;-73
2023/06/06 04:49:21;;;;;;;13.45;6.72;;;;;;;11.19;100.00;101963.16;5010151;28;20045;-72
2023/06/06 04:51:47;;;;;;;14.10;5.95;;;;;;;11.23;100.00;101963.63;5010326;28;20030;-71
2023/06/06 04:54:12;;;;;;;13.90;6.57;;;;;;;11.27;100.00;101961.47;5010250;28;20034;-72
2023/06/06 04:56:40;;;;;;;15.55;5.70;;;;;;;11.25;100.00;101950.94;4992532;28;20113;-71
2023/06/06 04:59:06;;;;;;;14.25;6.65;;;;;;;11.37;100.00;101962.06;5010280;28;20053;-72
2023/06/06 05:01:37;;;;;;;14.25;5.57;;;;;;;11.43;100.00;101963.22;5009854;28;20108;-71
2023/06/06 05:04:03;;;;;;;13.35;5.63;;;;;;;11.47;100.00;101961.84;5010074;28;20168;-72
2023/06/06 05:06:33;;;;;;;15.10;8.23;;;;;;;11.54;100.00;101957.47;5009558;28;20041;-72
2023/06/06 05:09:08;;;;;;;16.05;5.80;;;;;;;11.53;100.00;101956.66;5010118;28;20049;-72
2023/06/06 05:11:34;;;;;;;17.05;6.10;;;;;;;11.66;100.00;101961.44;4992188;28;20397;-72
2023/06/06 05:14:00;;;;;;;14.05;5.68;;;;;;;11.71;100.00;101967.06;5009928;28;20164;-72
2023/06/06 05:16:26;;;;;;;15.20;7.00;;;;;;;11.79;100.00;101964.34;5009674;28;20128;-71
2023/06/06 05:18:51;;;;;;;20.00;7.95;;;;;;;11.91;100.00;101969.31;4992176;28;20034;-72
2023/06/06 05:21:19;;;;;;;15.23;5.03;;;;;;;11.94;100.00;101969.78;5009733;28;20125;-71
2023/06/06 05:23:44;;;;;;;13.13;6.38;;;;;;;11.96;100.00;101965.09;5009573;28;20500;-71
2023/06/06 05:26:10;;;;;;;15.43;5.57;;;;;;;11.94;100.00;101972.44;5009703;28;20034;-72
2023/06/06 05:28:37;;;;;;;14.70;5.65;;;;;;;12.00;100.00;101969.09;5009614;28;20036;-71
2023/06/06 05:31:02;;;;;;;18.48;6.68;;;;;;;12.10;100.00;101976.00;5010770;28;20036;-72
2023/06/06 05:33:30;;;;;;;18.17;6.07;;;;;;;12.14;100.00;101970.13;5009559;28;20034;-72
2023/06/06 05:35:56;;;;;;;14.95;7.30;;;;;;;12.21;100.00;101976.44;5009462;28;20037;-72
2023/06/06 05:38:22;;;;;;;13.80;6.32;;;;;;;12.25;100.00;101972.38;5009633;28;20037;-71
2023/06/06 05:40:48;;;;;;;16.60;6.10;;;;;;;12.27;100.00;101972.22;5009438;28;20389;-72
2023/06/06 05:43:14;;;;;;;15.18;6.28;;;;;;;12.28;100.00;101973.84;5009318;28;20112;-71
2023/06/06 05:45:39;;;;;;;14.98;6.47;;;;;;;12.31;100.00;101973.50;5009400;28;20061;-72
2023/06/06 05:48:05;;;;;;;13.85;5.80;;;;;;;12.39;100.00;101978.81;5009339;28;20477;-71
2023/06/06 05:50:31;;;;;;;12.48;6.55;;;;;;;12.45;100.00;101974.56;5009680;28;20469;-72
2023/06/06 05:52:56;;;;;;;12.25;5.80;;;;;;;12.54;100.00;101973.47;5009408;28;20034;-71
2023/06/06 05:55:33;;;;;;;18.98;6.10;;;;;;;12.72;100.00;101981.97;5009232;28;20026;-73
2023/06/06 05:57:59;;;;;;;20.42;7.25;;;;;;;13.00;99.27;101976.00;5009308;28;20127;-73
2023/06/06 06:00:26;;;;;;;12.38;6.38;;;;;;;13.56;96.49;101978.19;5009317;28;20025;-73
2023/06/06 06:02:55;;;;;;;16.17;6.53;;;;;;;14.05;93.38;101974.78;5009178;28;20057;-72
2023/06/06 06:05:21;;;;;;;12.70;6.32;;;;;;;13.98;92.64;101977.38;5009159;28;20028;-72
2023/06/06 06:07:54;;;;;;;17.10;6.78;;;;;;;13.83;94.37;101971.25;5009265;28;20032;-72
2023/06/06 06:10:20;;;;;;;14.65;5.28;;;;;;;13.69;93.66;101974.81;5009126;28;20022;-73
2023/06/06 06:12:45;;;;;;;12.80;5.40;;;;;;;13.53;95.08;101978.56;5008986;28;20491;-73
2023/06/06 06:15:11;;;;;;;12.52;5.43;;;;;;;13.42;96.07;101969.16;5008993;28;20037;-72
2023/06/06 06:17:36;;;;;;;12.73;4.57;;;;;;;13.37;95.32;101975.06;5009455;28;20065;-71
2023/06/06 06:20:08;;;;;;;17.88;5.90;;;;;;;13.30;95.58;101968.78;4995280;28;20038;-72
2023/06/06 06:22:34;;;;;;;;;;;;;;;13.31;95.95;101970.47;4995751;28;20038;-72
2023/06/06 06:24:59;;;;;;;12.02;4.90;;;;;;;13.36;96.46;101975.25;5012734;28;19925;-71
2023/06/06 06:27:25;;;;;;;14.50;6.20;;;;;;;13.41;96.03;101967.47;5012805;28;20117;-71
2023/06/06 06:29:50;;;;;;;13.98;5.57;;;;;;;13.50;95.73;101979.75;5012609;28;20699;-72
2023/06/06 06:32:17;;;;;;;11.75;5.65;;;;;;;13.55;95.96;101968.47;5012749;28;20120;-71
2023/06/06 06:34:43;;;;;;;10.20;5.57;;;;;;;13.62;94.66;101990.00;4995292;28;20109;-72
2023/06/06 06:37:08;;;;;;;11.90;5.63;;;;;;;13.67;95.57;101996.44;5012646;28;20129;-71
2023/06/06 06:39:34;;;;;;;12.45;5.68;;;;;;;13.63;95.37;101978.25;5012642;28;20120;-71
2023/06/06 06:41:59;;;;;;;14.18;5.88;;;;;;;13.79;95.43;101986.06;4994902;28;20122;-72
2023/06/06 06:44:25;;;;;;;11.52;5.35;;;;;;;13.82;94.09;101983.00;5012604;28;20112;-71
2023/06/06 06:46:50;;;;;;;12.55;5.13;;;;;;;13.93;94.32;101984.34;5012649;28;20120;-71
2023/06/06 06:49:15;;;;;;;11.32;4.82;;;;;;;14.03;95.38;101982.19;5012523;28;20044;-72
2023/06/06 06:51:41;;;;;;;15.65;6.43;;;;;;;14.07;92.59;101986.16;5012436;28;20049;-71
2023/06/06 06:54:11;;;;;;;12.40;5.88;;;;;;;14.07;93.30;101988.84;4994598;28;20034;-69
2023/06/06 06:56:36;;;;;;;11.73;6.20;;;;;;;14.09;93.28;101991.31;5006876;28;20026;-71
2023/06/06 06:59:03;;;;;;;11.07;5.18;;;;;;;14.08;92.26;101986.97;5006050;28;20064;-73
2023/06/06 07:01:29;;;;;;;16.85;6.60;;;;;;;14.11;93.88;101991.94;5006624;28;20042;-74
2023/06/06 07:03:54;;;;;;;12.25;6.00;;;;;;;14.03;92.62;101984.84;5006470;28;20030;-73
2023/06/06 07:06:21;;;;;;;14.90;6.65;;;;;;;14.11;92.43;101987.41;5006262;28;20481;-73
2023/06/06 07:08:47;;;;;;;15.05;6.47;;;;;;;14.22;92.88;101994.94;5006326;28;20022;-73
2023/06/06 07:11:12;;;;;;;16.52;7.03;;;;;;;14.31;91.97;101992.97;5006200;28;20034;-73
2023/06/06 07:13:38;;;;;;;13.38;6.00;;;;;;;14.44;92.29;101997.63;5005790;28;20040;-74
2023/06/06 07:16:04;;;;;;;14.07;6.05;;;;;;;14.41;90.55;101992.66;5006453;28;20046;-73
2023/06/06 07:18:29;;;;;;;16.13;7.28;;;;;;;14.51;90.98;101997.66;4978469;28;20034;-73
2023/06/06 07:20:54;;;;;;;15.35;6.15;;;;;;;14.48;90.54;101994.34;5006358;28;20776;-74
2023/06/06 07:23:20;;;;;;;15.13;6.65;;;;;;;14.51;89.76;101997.66;5005710;28;20385;-76
2023/06/06 07:25:45;;;;;;;11.95;5.55;;;;;;;14.54;90.40;101987.41;4987999;28;20073;-74
2023/06/06 07:28:13;;;;;;;13.50;5.70;;;;;;;14.60;90.02;101985.78;5005801;28;20050;-74
2023/06/06 07:30:38;;;;;;;25.50;6.72;;;;;;;14.61;89.51;101979.38;5005055;28;20081;-71
2023/06/06 07:33:04;;;;;;;12.82;6.53;;;;;;;14.74;89.31;101992.09;5006109;28;20445;-71
2023/06/06 07:35:32;;;;;;;14.82;6.32;;;;;;;14.84;89.30;101996.06;5005302;28;20086;-75
2023/06/06 07:38:02;;;;;;;12.45;6.32;;;;;;;14.93;88.85;101990.53;5005925;28;20044;-75
2023/06/06 07:40:28;;;;;;;15.15;6.07;;;;;;;15.00;89.37;101986.03;5005968;28;20038;-72
2023/06/06 07:42:54;;;;;;;15.68;6.00;;;;;;;15.10;87.96;101991.91;5005894;28;20034;-70
2023/06/06 07:45:21;;;;;;;14.57;5.97;;;;;;;15.19;88.82;101979.94;4987389;28;20025;-74
2023/06/06 07:47:47;;;;;;;12.02;6.35;;;;;;;15.23;86.60;101981.22;5005192;28;20108;-74
2023/06/06 07:50:13;;;;;;;30.83;6.78;;;;;;;15.27;86.67;101977.09;5004741;28;20512;-73
2023/06/06 07:52:43;;;;;;;12.13;5.47;;;;;;;15.33;87.37;101975.47;5005334;28;20041;-76
2023/06/06 07:55:09;;;;;;;16.58;7.35;;;;;;;15.40;86.48;101979.00;5005301;28;20026;-76
2023/06/06 07:57:34;;;;;;;16.88;8.25;;;;;;;15.39;86.27;101965.78;5005025;28;20069;-76
2023/06/06 08:00:00;;;;;;;10.68;5.43;;;;;;;15.47;86.13;101969.09;4992711;28;20065;-73
2023/06/06 08:02:26;;;;;;;12.95;6.88;;;;;;;15.59;85.53;101974.75;4977337;28;20041;-71
2023/06/06 08:04:52;;;;;;;16.55;6.15;;;;;;;15.68;85.58;101976.19;5011090;28;20068;-73
2023/06/06 08:07:18;;;;;;;13.15;5.18;;;;;;;15.74;85.97;101970.03;5011096;28;20037;-73
2023/06/06 08:09:43;;;;;;;11.73;5.95;;;;;;;15.87;86.33;101973.78;5011149;28;20043;-74
2023/06/06 08:12:10;;;;;;;16.00;6.30;;;;;;;16.20;84.62;101971.97;5010906;28;20503;-73
2023/06/06 08:14:36;;;;;;;15.15;6.78;;;;;;;17.37;80.91;101964.09;5010958;28;20041;-75
2023/06/06 08:17:06;;;;;;;12.80;5.75;;;;;;;19.44;72.60;101969.38;4993317;28;20140;-74
2023/06/06 08:19:31;;;;;;;14.88;6.15;;;;;;;21.59;61.89;101979.88;5009729;28;20033;-74
2023/06/06 08:21:57;;;;;;;12.75;6.22;;;;;;;22.81;56.75;101974.78;4993047;28;20056;-74
2023/06/06 08:24:22;;;;;;;13.77;5.57;;;;;;;23.80;52.40;101978.44;5010439;28;20069;-74
2023/06/06 08:26:47;;;;;;;10.52;6.20;;;;;;;24.40;50.41;101977.31;5010679;28;20055;-74
2023/06/06 08:29:14;;;;;;;11.38;5.90;;;;;;;24.95;48.43;101979.84;5010542;28;20036;-75
2023/06/06 08:31:40;;;;;;;14.80;5.65;;;;;;;24.68;47.87;101978.03;5010414;28;20026;-75
2023/06/06 08:34:06;;;;;;;16.83;5.28;;;;;;;24.79;48.47;101977.03;5010017;28;20496;-76
2023/06/06 08:36:32;;;;;;;12.70;5.28;;;;;;;24.70;49.07;101973.16;5010340;28;20044;-75
2023/06/06 08:38:58;;;;;;;13.88;5.93;;;;;;;24.87;46.88;101959.34;5010539;28;20049;-75
2023/06/06 08:41:25;;;;;;;11.05;4.85;;;;;;;25.59;45.77;101957.66;5009605;28;20033;-76
2023/06/06 08:43:53;;;;;;;11.30;6.70;;;;;;;26.32;43.88;101953.88;5009962;28;20028;-76
2023/06/06 08:46:18;;;;;;;8.93;5.13;;;;;;;26.52;44.47;101961.25;5010014;28;20125;-74
2023/06/06 08:48:46;;;;;;;11.95;4.85;;;;;;;27.56;41.30;101955.06;5010179;28;20117;-76
2023/06/06 08:51:12;;;;;;;9.43;4.97;;;;;;;27.90;40.77;101960.59;5010309;28;20022;-75
2023/06/06 08:53:38;;;;;;;13.57;5.93;;;;;;;28.00;39.44;101956.94;5010294;28;20036;-76
2023/06/06 08:56:07;;;;;;;8.73;4.75;;;;;;;27.93;39.69;101963.59;5010143;28;20116;-73
2023/06/06 08:58:33;;;;;;;14.88;5.50;;;;;;;28.07;38.32;101951.94;5011022;28;20120;-77
2023/06/06 09:00:59;;;;;;;13.52;5.35;;;;;;;27.81;38.67;101954.91;4992614;28;20473;-74
2023/06/06 09:03:31;;;;;;;12.00;4.65;;;;;;;26.37;41.11;101959.34;5009933;28;20036;-74
2023/06/06 09:06:00;;;;;;;11.95;5.15;;;;;;;24.48;44.91;101949.56;5009634;28;20033;-74
2023/06/06 09:08:26;;;;;;;9.85;4.53;;;;;;;23.25;49.58;101952.25;5009816;28;20052;-76
2023/06/06 09:10:51;;;;;;;10.13;5.35;;;;;;;22.23;52.46;101963.34;4992565;28;20469;-74
2023/06/06 09:13:16;;;;;;;11.13;5.60;;;;;;;21.56;54.74;101946.94;5009723;28;20049;-74
2023/06/06 09:15:44;;;;;;;9.55;4.78;;;;;;;21.15;56.51;101952.38;5009645;28;20456;-75
2023/06/06 09:18:09;;;;;;;15.98;6.82;;;;;;;20.72;58.87;101961.78;5009730;28;20042;-76
2023/06/06 09:20:35;;;;;;;15.77;5.57;;;;;;;20.35;59.21;101950.31;4992173;28;20041;-76
2023/06/06 09:23:02;;;;;;;14.05;6.43;;;;;;;20.11;59.90;101950.28;4991998;28;20037;-75
2023/06/06 09:25:27;;;;;;;9.85;5.38;;;;;;;20.11;63.88;101950.28;5009702;28;20073;-74
2023/06/06 09:28:03;;;;;;;12.57;6.13;;;;;;;20.19;61.67;101951.03;5009500;28;20127;-74
2023/06/06 09:30:30;;;;;;;11.35;5.50;;;;;;;20.27;62.59;101951.50;5009667;28;20412;-74
2023/06/06 09:33:01;;;;;;;13.48;5.22;;;;;;;20.33;63.50;101947.00;5009519;28;20036;-74
2023/06/06 09:35:33;;;;;;;9.85;4.80;;;;;;;20.40;62.36;101944.19;5009628;28;20033;-76
2023/06/06 09:38:14;;;;;;;10.77;5.35;;;;;;;20.40;62.06;101941.50;5009411;28;20100;-75
2023/06/06 09:41:07;;;;;;;16.05;7.07;;;;;;;20.42;62.42;101934.78;5009389;28;20041;-75
2023/06/06 09:43:35;;;;;;;9.90;4.93;;;;;;;20.42;62.14;101933.97;5007538;28;20038;-74
2023/06/06 09:46:04;;;;;;;13.75;6.13;;;;;;;20.56;63.08;101935.38;5009486;28;20034;-75
2023/06/06 09:48:29;;;;;;;13.80;5.55;;;;;;;20.54;61.84;101932.94;5009936;28;20370;-73
2023/06/06 09:50:55;;;;;;;10.75;4.88;;;;;;;20.56;62.08;101936.19;5009588;28;20026;-75
2023/06/06 09:53:28;;;;;;;10.80;5.10;;;;;;;20.59;61.26;101929.47;5013043;28;20141;-74
2023/06/06 09:55:58;;;;;;;10.45;5.50;;;;;;;20.70;61.19;101923.25;5013400;28;20045;-74
2023/06/06 09:58:26;;;;;;;15.57;5.45;;;;;;;20.84;61.56;101931.13;5013465;28;20025;-76
2023/06/06 10:00:57;;;;;;;11.90;5.15;;;;;;;20.79;59.23;101929.09;5013417;28;20061;-74
2023/06/06 10:03:23;;;;;;;12.52;5.63;;;;;;;20.71;61.20;101924.88;5013448;28;20505;-75
2023/06/06 10:05:50;;;;;;;13.57;5.68;;;;;;;20.67;61.38;101931.84;5013261;28;20066;-75
2023/06/06 10:08:18;;;;;;;11.93;5.88;;;;;;;20.72;61.42;101925.69;5013222;28;20140;-75
2023/06/06 10:10:49;;;;;;;12.88;5.97;;;;;;;20.72;62.63;101931.13;5013290;28;20030;-75
2023/06/06 10:13:16;;;;;;;10.82;5.65;;;;;;;20.75;59.97;101930.63;5013215;28;20041;-75
2023/06/06 10:15:41;;;;;;;11.80;6.13;;;;;;;20.82;60.24;101927.81;5013114;28;20026;-76
2023/06/06 10:18:10;;;;;;;11.10;5.47;;;;;;;20.94;59.64;101932.16;4995435;28;20030;-74
2023/06/06 10:20:36;;;;;;;10.15;5.03;;;;;;;20.90;59.13;101913.88;5007686;28;20026;-78
2023/06/06 10:23:02;;;;;;;14.68;6.18;;;;;;;21.05;61.23;101911.47;5007109;28;20044;-77
2023/06/06 10:25:28;;;;;;;12.50;5.72;;;;;;;21.14;60.02;101918.19;5007754;28;20056;-77
2023/06/06 10:28:15;;;;;;;13.27;4.55;;;;;;;21.26;60.08;101920.03;5007961;28;20117;-77
2023/06/06 10:30:48;;;;;;;13.98;6.03;;;;;;;21.31;58.36;101920.13;5006801;28;20042;-75
2023/06/06 10:33:14;;;;;;;13.98;5.30;;;;;;;21.28;58.03;101916.00;5006927;28;21380;-73
2023/06/06 10:35:43;;;;;;;11.35;5.25;;;;;;;21.13;58.36;101916.53;5006325;28;20149;-73
2023/06/06 10:38:09;;;;;;;12.48;5.50;;;;;;;21.24;58.47;101917.53;5007051;28;20028;-73
2023/06/06 10:40:54;;;;;;;13.30;6.18;;;;;;;21.33;58.45;101915.28;5006039;28;20606;-71
2023/06/06 10:43:42;;;;;;;9.93;5.38;;;;;;;21.43;59.47;101902.75;5007049;28;20090;-71
2023/06/06 10:46:08;;;;;;;9.88;4.40;;;;;;;21.59;59.80;101908.47;5005156;28;20037;-72
2023/06/06 10:48:41;;;;;;;11.18;5.10;;;;;;;21.70;59.19;101893.97;5006951;28;20069;-72
2023/06/06 10:51:08;;;;;;;12.73;5.20;;;;;;;21.86;58.71;101914.88;5005392;28;20030;-71
2023/06/06 10:53:33;;;;;;;11.52;5.38;;;;;;;21.97;58.99;101906.91;5006608;28;20029;-74
2023/06/06 10:55:59;;;;;;;10.43;5.45;;;;;;;22.06;56.64;101908.97;5006031;28;20026;-75
2023/06/06 10:58:31;;;;;;;11.43;5.50;;;;;;;22.12;57.59;101907.16;5005979;28;20048;-75
2023/06/06 11:01:02;;;;;;;10.95;5.22;;;;;;;22.21;59.88;101907.59;4988350;28;20026;-74
2023/06/06 11:03:42;;;;;;;10.10;4.55;;;;;;;22.34;56.34;101904.50;5005777;28;20014;-74
2023/06/06 11:06:13;;;;;;;13.63;6.57;;;;;;;22.31;57.53;101896.88;4996796;28;20392;-74
2023/06/06 11:08:57;;;;;;;10.55;5.65;;;;;;;22.47;57.16;101908.78;5006389;28;20124;-74
2023/06/06 11:11:31;;;;;;;12.73;5.55;;;;;;;22.57;56.67;101903.47;5005674;28;20049;-74
2023/06/06 11:14:07;;;;;;;10.63;5.20;;;;;;;22.67;55.81;101895.47;5006441;28;20189;-74